createdAt,value
2018-03-21T00:00:04.254Z,28.70
2018-03-21T00:01:08.273Z,30.10
2018-03-21T00:02:11.618Z,29.15
2018-03-21T00:03:14.855Z,29.52
2018-03-21T00:04:18.829Z,29.70
2018-03-21T00:05:22.820Z,30.35
2018-03-21T00:06:26.055Z,28.80
2018-03-21T00:07:29.299Z,31.02
2018-03-21T00:08:33.297Z,30.45
2018-03-21T00:09:37.303Z,28.73
2018-03-21T00:10:41.295Z,30.98
2018-03-21T00:11:45.884Z,33.33
2018-03-21T00:12:49.115Z,29.48
2018-03-21T00:13:52.357Z,30.42
2018-03-21T00:14:55.678Z,30.30
2018-03-21T00:15:58.954Z,29.65
2018-03-21T00:17:02.196Z,30.45
2018-03-21T00:18:05.440Z,30.27
2018-03-21T00:19:08.719Z,29.50
2018-03-21T00:20:11.899Z,30.77
2018-03-21T00:21:15.109Z,29.50
2018-03-21T00:22:18.347Z,30.00
2018-03-21T00:23:22.347Z,29.30
2018-03-21T00:24:26.340Z,30.73
2018-03-21T00:25:29.601Z,30.45
2018-03-21T00:26:32.844Z,30.23
2018-03-21T00:27:36.065Z,30.58
2018-03-21T00:28:39.302Z,30.12
2018-03-21T00:29:42.530Z,29.42
2018-03-21T00:30:45.732Z,31.20
2018-03-21T00:31:49.774Z,30.60
2018-03-21T00:32:53.049Z,33.20
2018-03-21T00:33:56.309Z,30.55
2018-03-21T00:35:00.298Z,32.88
2018-03-21T00:36:03.509Z,30.58
2018-03-21T00:37:06.777Z,31.87
2018-03-21T00:38:10.812Z,30.08
2018-03-21T00:39:14.088Z,30.37
2018-03-21T00:40:17.409Z,30.92
2018-03-21T00:41:20.609Z,33.60
2018-03-21T00:42:23.871Z,30.77
2018-03-21T00:43:27.090Z,29.33
2018-03-21T00:44:31.099Z,30.30
2018-03-21T00:45:35.065Z,28.73
2018-03-21T00:46:39.806Z,32.53
2018-03-21T00:47:43.941Z,29.83
2018-03-21T00:48:47.139Z,31.27
2018-03-21T00:49:50.354Z,29.67
2018-03-21T00:50:53.634Z,31.83
2018-03-21T00:51:56.862Z,30.73
2018-03-21T00:53:00.091Z,31.70
2018-03-21T00:54:03.297Z,30.52
2018-03-21T00:55:06.508Z,30.80
2018-03-21T00:56:09.733Z,29.98
2018-03-21T00:57:13.008Z,30.33
2018-03-21T00:58:16.308Z,32.50
2018-03-21T00:59:19.515Z,30.20
2018-03-21T01:00:23.509Z,30.80
2018-03-21T01:01:26.733Z,32.42
2018-03-21T01:02:30.059Z,30.77
2018-03-21T01:03:33.241Z,32.35
2018-03-21T01:04:36.567Z,32.63
2018-03-21T01:05:40.556Z,31.92
2018-03-21T01:06:44.552Z,30.42
2018-03-21T01:07:47.774Z,30.60
2018-03-21T01:08:51.047Z,29.90
2018-03-21T01:09:55.071Z,30.80
2018-03-21T01:10:58.272Z,31.35
2018-03-21T01:12:01.505Z,29.60
2018-03-21T01:13:04.717Z,29.48
2018-03-21T01:14:07.954Z,30.95
2018-03-21T01:15:12.002Z,30.05
2018-03-21T01:16:15.258Z,30.83
2018-03-21T01:17:19.229Z,29.92
2018-03-21T01:18:23.253Z,31.73
2018-03-21T01:19:27.240Z,31.30
2018-03-21T01:20:31.226Z,32.10
2018-03-21T01:21:34.429Z,33.47
2018-03-21T01:22:38.449Z,29.00
2018-03-21T01:23:41.682Z,31.55
2018-03-21T01:24:44.905Z,32.90
2018-03-21T01:25:48.157Z,33.55
2018-03-21T01:26:51.454Z,31.33
2018-03-21T01:27:55.443Z,29.60
2018-03-21T01:28:58.651Z,33.42
2018-03-21T01:30:02.644Z,31.45
2018-03-21T01:31:06.626Z,31.90
2018-03-21T01:32:09.850Z,30.52
2018-03-21T01:33:13.091Z,32.30
2018-03-21T01:34:16.304Z,30.62
2018-03-21T01:35:19.526Z,30.30
2018-03-21T01:36:22.865Z,31.27
2018-03-21T01:37:26.853Z,30.65
2018-03-21T01:38:30.896Z,30.75
2018-03-21T01:39:34.110Z,29.23
2018-03-21T01:40:37.333Z,33.53
2018-03-21T01:41:41.325Z,31.92
2018-03-21T01:42:45.445Z,30.92
2018-03-21T01:43:48.732Z,31.75
2018-03-21T01:44:52.724Z,31.73
2018-03-21T01:45:56.731Z,31.58
2018-03-21T01:47:00.707Z,32.25
2018-03-21T01:48:03.925Z,32.45
2018-03-21T01:49:07.155Z,32.17
2018-03-21T01:50:10.376Z,30.37
2018-03-21T01:51:14.363Z,30.00
2018-03-21T01:52:17.584Z,30.62
2018-03-21T01:53:20.843Z,30.58
2018-03-21T01:54:24.071Z,31.35
2018-03-21T01:55:27.288Z,30.08
2018-03-21T01:56:30.520Z,32.75
2018-03-21T01:58:43.461Z,31.42
2018-03-21T01:59:46.651Z,31.85
2018-03-21T02:00:49.873Z,31.73
2018-03-21T02:01:53.102Z,34.22
2018-03-21T02:02:56.353Z,33.80
2018-03-21T02:03:59.578Z,31.67
2018-03-21T02:05:02.784Z,32.47
2018-03-21T02:06:06.782Z,31.80
2018-03-21T02:07:10.789Z,32.38
2018-03-21T02:08:14.801Z,32.20
2018-03-21T02:09:18.803Z,32.05
2018-03-21T02:10:22.801Z,30.60
2018-03-21T02:11:26.869Z,30.70
2018-03-21T02:12:30.071Z,31.67
2018-03-21T02:13:34.076Z,29.50
2018-03-21T02:14:38.064Z,32.03
2018-03-21T02:15:41.329Z,32.35
2018-03-21T02:16:44.544Z,31.50
2018-03-21T02:17:48.524Z,31.60
2018-03-21T02:18:51.749Z,31.92
2018-03-21T02:19:54.962Z,30.30
2018-03-21T02:20:58.207Z,31.77
2018-03-21T02:22:02.300Z,31.77
2018-03-21T02:23:05.504Z,31.40
2018-03-21T02:24:08.732Z,29.45
2018-03-21T02:25:11.962Z,33.45
2018-03-21T02:26:15.220Z,32.28
2018-03-21T02:27:18.418Z,30.80
2018-03-21T02:28:22.425Z,31.20
2018-03-21T02:29:26.794Z,31.05
2018-03-21T02:30:30.222Z,29.12
2018-03-21T02:31:34.231Z,32.78
2018-03-21T02:32:37.471Z,31.35
2018-03-21T02:33:40.750Z,32.35
2018-03-21T02:34:44.114Z,30.83
2018-03-21T02:35:47.484Z,32.42
2018-03-21T02:36:50.725Z,30.75
2018-03-21T02:37:54.800Z,31.15
2018-03-21T02:38:58.184Z,29.73
2018-03-21T02:40:01.465Z,32.40
2018-03-21T02:41:05.546Z,32.65
2018-03-21T02:42:08.868Z,31.40
2018-03-21T02:43:12.158Z,32.20
2018-03-21T02:44:15.522Z,34.22
2018-03-21T02:45:19.591Z,31.42
2018-03-21T02:46:22.814Z,31.08
2018-03-21T02:47:26.105Z,31.27
2018-03-21T02:48:29.415Z,30.95
2018-03-21T02:49:32.700Z,31.02
2018-03-21T02:50:35.964Z,31.73
2018-03-21T02:51:39.265Z,32.75
2018-03-21T02:52:42.520Z,30.25
2018-03-21T02:53:46.594Z,33.47
2018-03-21T02:54:49.935Z,31.42
2018-03-21T02:55:53.274Z,32.92
2018-03-21T02:56:57.732Z,30.48
2018-03-21T02:58:00.971Z,29.83
2018-03-21T02:59:04.966Z,28.20
2018-03-21T03:00:08.982Z,28.30
2018-03-21T03:01:12.418Z,27.02
2018-03-21T03:02:16.020Z,30.67
2018-03-21T03:03:19.248Z,28.73
2018-03-21T03:04:22.516Z,27.83
2018-03-21T03:05:25.729Z,27.52
2018-03-21T03:06:28.997Z,28.15
2018-03-21T03:07:32.370Z,26.90
2018-03-21T03:08:35.621Z,27.55
2018-03-21T03:09:38.842Z,29.27
2018-03-21T03:10:42.114Z,27.20
2018-03-21T03:11:46.130Z,28.73
2018-03-21T03:12:49.419Z,28.58
2018-03-21T03:13:52.652Z,27.75
2018-03-21T03:14:55.985Z,28.33
2018-03-21T03:15:59.592Z,28.30
2018-03-21T03:17:02.801Z,28.95
2018-03-21T03:18:05.990Z,27.35
2018-03-21T03:19:09.388Z,27.52
2018-03-21T03:20:12.732Z,25.00
2018-03-21T03:21:16.575Z,26.67
2018-03-21T03:22:20.590Z,26.42
2018-03-21T03:23:24.573Z,25.83
2018-03-21T03:24:29.258Z,28.62
2018-03-21T03:25:32.589Z,25.37
2018-03-21T03:26:35.804Z,26.37
2018-03-21T03:27:39.028Z,25.05
2018-03-21T03:28:42.261Z,29.92
2018-03-21T03:29:45.498Z,27.92
2018-03-21T03:30:48.779Z,27.37
2018-03-21T03:31:52.070Z,27.15
2018-03-21T03:32:55.253Z,25.70
2018-03-21T03:33:58.484Z,27.62
2018-03-21T03:35:01.792Z,25.98
2018-03-21T03:36:05.057Z,27.45
2018-03-21T03:37:08.277Z,26.30
2018-03-21T03:38:11.493Z,25.62
2018-03-21T03:39:15.470Z,26.23
2018-03-21T03:40:18.710Z,24.83
2018-03-21T03:41:21.958Z,27.90
2018-03-21T03:42:26.498Z,27.30
2018-03-21T03:43:29.942Z,25.27
2018-03-21T03:44:33.197Z,26.40
2018-03-21T03:45:36.452Z,26.65
2018-03-21T03:46:39.754Z,26.35
2018-03-21T03:47:43.042Z,26.95
2018-03-21T03:48:46.279Z,26.50
2018-03-21T03:49:50.399Z,25.20
2018-03-21T03:50:54.456Z,24.70
2018-03-21T03:51:57.653Z,25.55
2018-03-21T03:53:01.630Z,26.80
2018-03-21T03:54:04.855Z,25.88
2018-03-21T03:55:09.048Z,26.00
2018-03-21T03:56:13.043Z,26.05
2018-03-21T03:57:17.321Z,24.80
2018-03-21T03:58:20.518Z,25.50
2018-03-21T03:59:23.724Z,25.80
2018-03-21T04:00:27.718Z,22.45
2018-03-21T04:01:31.888Z,25.20
2018-03-21T04:02:35.083Z,24.48
2018-03-21T04:03:38.314Z,24.83
2018-03-21T04:04:41.557Z,25.55
2018-03-21T04:05:44.801Z,23.12
2018-03-21T04:06:48.002Z,25.73
2018-03-21T04:07:51.256Z,24.52
2018-03-21T04:08:54.511Z,24.87
2018-03-21T04:09:58.509Z,23.33
2018-03-21T04:11:01.767Z,24.27
2018-03-21T04:12:04.966Z,24.35
2018-03-21T04:13:08.965Z,24.87
2018-03-21T04:14:12.931Z,23.25
2018-03-21T04:15:16.156Z,22.60
2018-03-21T04:16:19.390Z,25.67
2018-03-21T04:17:22.603Z,23.25
2018-03-21T04:18:26.608Z,23.85
2018-03-21T04:19:29.800Z,23.38
2018-03-21T04:20:33.779Z,23.45
2018-03-21T04:21:37.761Z,23.27
2018-03-21T04:22:41.021Z,23.17
2018-03-21T04:23:44.258Z,25.02
2018-03-21T04:24:48.260Z,22.98
2018-03-21T04:25:52.245Z,22.37
2018-03-21T04:26:55.465Z,23.40
2018-03-21T04:27:58.713Z,21.95
2018-03-21T04:29:01.971Z,23.27
2018-03-21T04:30:05.153Z,23.75
2018-03-21T04:31:08.476Z,21.55
2018-03-21T04:32:12.528Z,24.25
2018-03-21T04:33:15.772Z,21.65
2018-03-21T04:34:19.767Z,23.80
2018-03-21T04:35:23.780Z,24.75
2018-03-21T04:36:27.014Z,23.38
2018-03-21T04:37:31.006Z,23.33
2018-03-21T04:38:34.223Z,23.30
2018-03-21T04:39:38.228Z,23.95
2018-03-21T04:40:42.296Z,22.60
2018-03-21T04:41:46.092Z,25.77
2018-03-21T04:42:50.135Z,22.62
2018-03-21T04:43:54.185Z,22.85
2018-03-21T04:44:57.413Z,22.10
2018-03-21T04:46:01.440Z,23.25
2018-03-21T04:47:04.671Z,22.65
2018-03-21T04:48:07.888Z,24.02
2018-03-21T04:49:11.130Z,23.10
2018-03-21T04:50:14.426Z,21.60
2018-03-21T04:51:17.763Z,22.58
2018-03-21T04:52:21.006Z,23.25
2018-03-21T04:53:25.012Z,21.40
2018-03-21T04:54:29.017Z,22.33
2018-03-21T04:55:33.101Z,24.48
2018-03-21T04:56:36.296Z,21.37
2018-03-21T04:57:40.284Z,23.30
2018-03-21T04:58:43.505Z,22.25
2018-03-21T04:59:46.727Z,23.00
2018-03-21T05:00:49.932Z,21.27
2018-03-21T05:01:54.049Z,21.55
2018-03-21T05:02:57.217Z,21.83
2018-03-21T05:04:00.747Z,20.62
2018-03-21T05:05:03.976Z,21.58
2018-03-21T05:06:07.210Z,21.55
2018-03-21T05:07:11.938Z,24.90
2018-03-21T05:08:15.219Z,22.50
2018-03-21T05:09:18.510Z,23.08
2018-03-21T05:10:22.524Z,21.35
2018-03-21T05:11:26.513Z,20.80
2018-03-21T05:12:30.511Z,21.95
2018-03-21T05:13:34.511Z,23.70
2018-03-21T05:14:38.506Z,20.62
2018-03-21T05:15:41.865Z,19.30
2018-03-21T05:16:45.073Z,19.42
2018-03-21T05:17:48.326Z,19.98
2018-03-21T05:18:51.512Z,21.40
2018-03-21T05:19:54.747Z,19.73
2018-03-21T05:20:57.993Z,21.23
2018-03-21T05:22:01.350Z,20.17
2018-03-21T05:23:04.726Z,20.15
2018-03-21T05:24:07.960Z,18.77
2018-03-21T05:25:11.176Z,18.42
2018-03-21T05:26:14.406Z,19.25
2018-03-21T05:27:17.656Z,16.85
2018-03-21T05:28:20.869Z,18.10
2018-03-21T05:29:24.116Z,16.05
2018-03-21T05:30:27.378Z,16.60
2018-03-21T05:31:31.349Z,17.05
2018-03-21T05:32:34.581Z,17.98
2018-03-21T05:33:37.850Z,17.67
2018-03-21T05:34:41.133Z,15.75
2018-03-21T05:35:44.427Z,15.10
2018-03-21T05:36:47.680Z,15.20
2018-03-21T05:37:51.686Z,16.35
2018-03-21T05:38:55.661Z,15.70
2018-03-21T05:39:58.900Z,15.82
2018-03-21T05:41:02.128Z,15.02
2018-03-21T05:42:05.357Z,15.93
2018-03-21T05:43:08.587Z,14.80
2018-03-21T05:44:11.827Z,15.00
2018-03-21T05:45:15.056Z,15.30
2018-03-21T05:46:19.069Z,15.48
2018-03-21T05:47:22.337Z,15.85
2018-03-21T05:48:25.532Z,15.48
2018-03-21T05:49:29.760Z,17.10
2018-03-21T05:50:32.978Z,16.30
2018-03-21T05:51:36.255Z,16.70
2018-03-21T05:52:39.476Z,15.50
2018-03-21T05:53:42.721Z,15.70
2018-03-21T05:54:45.967Z,16.92
2018-03-21T05:55:50.005Z,15.55
2018-03-21T05:56:53.253Z,15.48
2018-03-21T05:57:57.262Z,16.60
2018-03-21T05:59:00.622Z,15.60
2018-03-21T06:00:03.871Z,15.13
2018-03-21T06:01:07.111Z,15.27
2018-03-21T06:02:10.351Z,15.32
2018-03-21T06:03:13.585Z,15.30
2018-03-21T06:04:16.816Z,14.55
2018-03-21T06:05:20.033Z,15.80
2018-03-21T06:06:24.095Z,14.68
2018-03-21T06:07:28.221Z,15.70
2018-03-21T06:08:31.491Z,14.38
2018-03-21T06:09:34.733Z,16.05
2018-03-21T06:10:37.975Z,17.15
2018-03-21T06:11:41.185Z,16.02
2018-03-21T06:12:44.488Z,15.70
2018-03-21T06:13:47.708Z,14.60
2018-03-21T06:14:50.945Z,15.80
2018-03-21T06:15:54.182Z,14.77
2018-03-21T06:16:57.405Z,14.98
2018-03-21T06:18:01.405Z,14.60
2018-03-21T06:19:05.402Z,14.95
2018-03-21T06:20:09.385Z,15.45
2018-03-21T06:21:13.383Z,14.23
2018-03-21T06:22:17.382Z,15.70
2018-03-21T06:23:20.609Z,15.13
2018-03-21T06:24:23.935Z,13.73
2018-03-21T06:25:27.172Z,13.65
2018-03-21T06:26:30.396Z,14.15
2018-03-21T06:27:33.640Z,13.10
2018-03-21T06:28:36.892Z,12.55
2018-03-21T06:29:40.884Z,13.10
2018-03-21T06:30:44.903Z,12.52
2018-03-21T06:31:48.128Z,13.52
2018-03-21T06:32:51.360Z,12.05
2018-03-21T06:33:55.384Z,12.90
2018-03-21T06:34:58.639Z,12.68
2018-03-21T06:36:01.841Z,13.60
2018-03-21T06:37:05.061Z,14.05
2018-03-21T06:38:08.346Z,11.60
2018-03-21T06:39:11.565Z,14.32
2018-03-21T06:40:15.578Z,13.90
2018-03-21T06:41:19.598Z,15.02
2018-03-21T06:42:22.827Z,13.10
2018-03-21T06:43:26.035Z,12.68
2018-03-21T06:44:30.077Z,12.18
2018-03-21T06:45:33.288Z,13.00
2018-03-21T06:46:38.250Z,12.95
2018-03-21T06:47:42.267Z,11.70
2018-03-21T06:48:45.517Z,11.60
2018-03-21T06:49:48.788Z,11.40
2018-03-21T06:50:52.026Z,11.57
2018-03-21T06:51:55.257Z,11.68
2018-03-21T06:52:58.477Z,11.77
2018-03-21T06:54:02.472Z,11.35
2018-03-21T06:55:06.460Z,10.63
2018-03-21T06:56:10.480Z,10.95
2018-03-21T06:57:14.504Z,10.32
2018-03-21T06:58:17.717Z,11.05
2018-03-21T06:59:20.945Z,11.20
2018-03-21T07:00:24.181Z,11.30
2018-03-21T07:01:27.436Z,10.65
2018-03-21T07:02:30.683Z,10.52
2018-03-21T07:03:34.660Z,10.18
2018-03-21T07:04:38.693Z,10.27
2018-03-21T07:05:42.757Z,10.25
2018-03-21T07:06:45.996Z,8.98
2018-03-21T07:07:49.276Z,9.32
2018-03-21T07:08:52.505Z,9.10
2018-03-21T07:09:55.723Z,9.65
2018-03-21T07:10:59.755Z,10.07
2018-03-21T07:12:02.976Z,10.52
2018-03-21T07:13:06.198Z,8.95
2018-03-21T07:14:21.410Z,10.25
2018-03-21T07:15:36.634Z,10.20
2018-03-21T07:16:48.304Z,9.63
2018-03-21T07:17:52.449Z,10.23
2018-03-21T07:18:55.721Z,10.13
2018-03-21T07:19:58.970Z,9.23
2018-03-21T07:21:02.178Z,9.30
2018-03-21T07:22:05.425Z,9.60
2018-03-21T07:23:09.455Z,10.32
2018-03-21T07:24:12.654Z,9.43
2018-03-21T07:25:15.860Z,8.57
2018-03-21T07:26:19.209Z,10.05
2018-03-21T07:27:22.438Z,9.25
2018-03-21T07:28:25.684Z,10.35
2018-03-21T07:29:28.986Z,8.50
2018-03-21T07:30:32.187Z,9.35
2018-03-21T07:31:35.425Z,9.30
2018-03-21T07:32:38.630Z,8.60
2018-03-21T07:33:41.881Z,8.25
2018-03-21T07:34:45.121Z,8.63
2018-03-21T07:35:48.448Z,7.95
2018-03-21T07:36:51.655Z,8.50
2018-03-21T07:37:54.870Z,8.40
2018-03-21T07:38:58.161Z,8.23
2018-03-21T07:40:01.515Z,8.73
2018-03-21T07:41:04.714Z,8.20
2018-03-21T07:42:08.057Z,8.70
2018-03-21T07:43:12.066Z,9.00
2018-03-21T07:44:15.378Z,9.25
2018-03-21T07:45:19.355Z,8.32
2018-03-21T07:46:22.579Z,8.45
2018-03-21T07:47:25.856Z,8.52
2018-03-21T07:48:29.106Z,8.13
2018-03-21T07:49:32.338Z,8.55
2018-03-21T07:50:35.585Z,8.68
2018-03-21T07:51:38.806Z,8.35
2018-03-21T07:52:42.038Z,8.57
2018-03-21T07:53:45.259Z,8.55
2018-03-21T07:54:48.485Z,7.72
2018-03-21T07:55:51.698Z,8.05
2018-03-21T07:56:54.918Z,8.27
2018-03-21T07:57:58.141Z,8.38
2018-03-21T07:59:01.347Z,8.18
2018-03-21T08:00:05.315Z,8.45
2018-03-21T08:01:08.535Z,8.20
2018-03-21T08:02:12.596Z,7.68
2018-03-21T08:03:16.644Z,7.47
2018-03-21T08:04:20.633Z,7.37
2018-03-21T08:05:24.602Z,8.82
2018-03-21T08:06:27.831Z,7.43
2018-03-21T08:07:31.832Z,8.48
2018-03-21T08:08:35.828Z,8.48
2018-03-21T08:09:39.839Z,8.50
2018-03-21T08:10:43.071Z,8.60
2018-03-21T08:11:46.283Z,7.47
2018-03-21T08:12:49.524Z,8.43
2018-03-21T08:13:52.819Z,8.15
2018-03-21T08:14:56.009Z,8.07
2018-03-21T08:15:59.228Z,8.75
2018-03-21T08:17:03.210Z,9.15
2018-03-21T08:18:06.427Z,8.40
2018-03-21T08:19:09.713Z,8.75
2018-03-21T08:20:12.972Z,8.10
2018-03-21T08:21:20.212Z,8.38
2018-03-21T08:22:23.434Z,7.72
2018-03-21T08:23:27.437Z,8.65
2018-03-21T08:24:31.186Z,8.85
2018-03-21T08:25:34.531Z,8.20
2018-03-21T08:26:37.786Z,8.82
2018-03-21T08:27:42.229Z,8.30
2018-03-21T08:28:45.509Z,9.10
2018-03-21T08:29:48.804Z,7.65
2018-03-21T08:30:52.520Z,8.55
2018-03-21T08:31:55.773Z,8.27
2018-03-21T08:32:59.021Z,8.30
2018-03-21T08:34:03.501Z,8.98
2018-03-21T08:35:06.850Z,9.13
2018-03-21T08:36:10.090Z,8.10
2018-03-21T08:37:13.306Z,8.52
2018-03-21T08:38:17.267Z,9.57
2018-03-21T08:39:20.498Z,8.95
2018-03-21T08:40:24.474Z,8.77
2018-03-21T08:41:27.703Z,9.20
2018-03-21T08:42:30.936Z,9.40
2018-03-21T08:43:34.950Z,8.07
2018-03-21T08:44:38.949Z,9.68
2018-03-21T08:45:42.192Z,9.32
2018-03-21T08:46:45.504Z,9.98
2018-03-21T08:47:48.720Z,9.48
2018-03-21T08:48:51.952Z,9.20
2018-03-21T08:49:55.184Z,9.07
2018-03-21T08:50:58.438Z,9.40
2018-03-21T08:52:01.682Z,9.90
2018-03-21T08:53:04.895Z,9.30
2018-03-21T08:54:08.126Z,8.77
2018-03-21T08:55:11.326Z,9.35
2018-03-21T08:56:14.581Z,9.05
2018-03-21T08:57:17.777Z,8.52
2018-03-21T08:58:20.992Z,9.10
2018-03-21T08:59:24.223Z,9.55
2018-03-21T09:00:28.190Z,9.60
2018-03-21T09:01:31.408Z,9.60
2018-03-21T09:02:34.674Z,8.57
2018-03-21T09:03:38.686Z,8.90
2018-03-21T09:04:41.925Z,9.27
2018-03-21T09:05:45.110Z,9.07
2018-03-21T09:06:48.438Z,9.30
2018-03-21T09:07:51.659Z,8.95
2018-03-21T09:08:55.635Z,9.63
2018-03-21T09:09:58.877Z,8.95
2018-03-21T09:11:02.866Z,8.48
2018-03-21T09:12:06.095Z,9.60
2018-03-21T09:13:10.086Z,9.93
2018-03-21T09:14:13.313Z,9.02
2018-03-21T09:15:16.570Z,9.15
2018-03-21T09:16:19.793Z,9.27
2018-03-21T09:17:23.020Z,9.38
2018-03-21T09:18:26.247Z,8.95
2018-03-21T09:19:29.465Z,9.07
2018-03-21T09:20:33.508Z,9.88
2018-03-21T09:21:36.689Z,9.75
2018-03-21T09:22:43.042Z,10.65
2018-03-21T09:23:46.566Z,8.65
2018-03-21T09:24:51.213Z,9.52
2018-03-21T09:25:55.697Z,9.10
2018-03-21T09:26:58.930Z,9.70
2018-03-21T09:28:02.152Z,10.32
2018-03-21T09:29:06.940Z,11.80
2018-03-21T09:30:10.177Z,9.63
2018-03-21T09:31:14.163Z,9.07
2018-03-21T09:32:18.585Z,8.50
2018-03-21T09:33:22.072Z,9.60
2018-03-21T09:34:25.866Z,8.88
2018-03-21T09:35:29.094Z,9.20
2018-03-21T09:36:32.434Z,9.50
2018-03-21T09:37:37.473Z,10.48
2018-03-21T09:38:40.696Z,10.60
2018-03-21T09:39:43.909Z,11.40
2018-03-21T09:40:47.156Z,10.63
2018-03-21T09:41:50.396Z,10.10
2018-03-21T09:42:53.641Z,11.68
2018-03-21T09:43:58.475Z,11.65
2018-03-21T09:45:01.678Z,11.73
2018-03-21T09:46:04.908Z,11.10
2018-03-21T09:47:08.676Z,11.30
2018-03-21T09:48:17.264Z,11.25
2018-03-21T09:49:20.497Z,11.15
2018-03-21T09:50:25.199Z,11.07
2018-03-21T09:51:29.565Z,10.93
2018-03-21T09:52:32.847Z,11.70
2018-03-21T09:53:36.041Z,11.25
2018-03-21T09:54:44.133Z,11.23
2018-03-21T09:55:47.375Z,12.15
2018-03-21T09:56:50.583Z,11.90
2018-03-21T09:57:53.809Z,10.93
2018-03-21T09:58:57.849Z,10.52
2018-03-21T10:00:01.067Z,12.02
2018-03-21T10:01:05.672Z,11.30
2018-03-21T10:02:09.179Z,12.07
2018-03-21T10:03:14.213Z,12.90
2018-03-21T10:04:18.677Z,11.98
2018-03-21T10:05:21.910Z,12.37
2018-03-21T10:06:25.902Z,11.40
2018-03-21T10:07:29.889Z,11.68
2018-03-21T10:08:33.112Z,12.70
2018-03-21T10:09:36.335Z,12.52
2018-03-21T10:10:39.570Z,12.10
2018-03-21T10:11:42.840Z,11.20
2018-03-21T10:12:47.437Z,12.80
2018-03-21T10:13:50.672Z,12.68
2018-03-21T10:14:53.910Z,12.95
2018-03-21T10:15:58.663Z,13.23
2018-03-21T10:17:03.589Z,12.70
2018-03-21T10:18:10.387Z,12.18
2018-03-21T10:19:13.731Z,13.68
2018-03-21T10:20:16.985Z,10.82
2018-03-21T10:21:20.245Z,12.50
2018-03-21T10:22:23.579Z,12.55
2018-03-21T10:23:26.802Z,10.80
2018-03-21T10:24:30.090Z,11.63
2018-03-21T10:25:34.085Z,11.80
2018-03-21T10:26:38.073Z,12.18
2018-03-21T10:27:42.155Z,11.80
2018-03-21T10:28:45.371Z,13.73
2018-03-21T10:29:49.373Z,11.93
2018-03-21T10:30:53.373Z,12.23
2018-03-21T10:31:57.336Z,12.80
2018-03-21T10:33:01.376Z,12.20
2018-03-21T10:34:05.382Z,13.00
2018-03-21T10:35:09.405Z,11.95
2018-03-21T10:36:12.620Z,11.12
2018-03-21T10:37:15.894Z,12.50
2018-03-21T10:38:19.195Z,11.48
2018-03-21T10:39:22.420Z,12.82
2018-03-21T10:40:25.680Z,13.50
2018-03-21T10:41:29.736Z,13.48
2018-03-21T10:42:32.958Z,13.13
2018-03-21T10:43:36.356Z,12.45
2018-03-21T10:44:40.356Z,12.98
2018-03-21T10:45:44.359Z,12.80
2018-03-21T10:46:48.359Z,13.77
2018-03-21T10:47:52.348Z,13.27
2018-03-21T10:48:55.664Z,12.68
2018-03-21T10:49:58.874Z,13.85
2018-03-21T10:51:02.095Z,13.88
2018-03-21T10:52:05.372Z,12.82
2018-03-21T10:53:08.638Z,13.35
2018-03-21T10:54:11.911Z,13.75
2018-03-21T10:55:15.120Z,11.73
2018-03-21T10:56:18.480Z,11.63
2018-03-21T10:57:21.722Z,12.37
2018-03-21T10:58:25.697Z,13.40
2018-03-21T10:59:28.987Z,13.45
2018-03-21T11:00:32.243Z,12.37
2018-03-21T11:01:35.460Z,11.48
2018-03-21T11:02:45.196Z,11.88
2018-03-21T11:03:54.817Z,11.40
2018-03-21T11:04:58.033Z,12.02
2018-03-21T11:06:01.246Z,12.18
2018-03-21T11:07:04.491Z,12.20
2018-03-21T11:08:07.755Z,12.50
2018-03-21T11:09:11.803Z,13.05
2018-03-21T11:10:15.037Z,12.48
2018-03-21T11:11:19.036Z,11.60
2018-03-21T11:12:22.263Z,12.88
2018-03-21T11:13:25.511Z,14.15
2018-03-21T11:14:29.509Z,11.60
2018-03-21T11:15:32.966Z,12.15
2018-03-21T11:16:36.164Z,13.82
2018-03-21T11:17:39.379Z,12.32
2018-03-21T11:18:42.647Z,12.57
2018-03-21T11:19:46.042Z,11.43
2018-03-21T11:20:50.064Z,12.70
2018-03-21T11:21:53.315Z,11.50
2018-03-21T11:22:56.531Z,11.98
2018-03-21T11:23:59.765Z,12.37
2018-03-21T11:25:02.998Z,12.70
2018-03-21T11:26:06.787Z,12.07
2018-03-21T11:27:10.203Z,10.95
2018-03-21T11:28:14.344Z,12.50
2018-03-21T11:29:18.350Z,11.80
2018-03-21T11:30:22.335Z,11.50
2018-03-21T11:31:25.650Z,14.48
2018-03-21T11:32:29.648Z,12.65
2018-03-21T11:33:33.620Z,13.40
2018-03-21T11:34:38.383Z,11.00
2018-03-21T11:35:41.585Z,11.30
2018-03-21T11:36:44.817Z,12.45
2018-03-21T11:37:48.808Z,11.70
2018-03-21T11:38:52.043Z,11.68
2018-03-21T11:39:55.269Z,11.85
2018-03-21T11:40:58.497Z,11.63
2018-03-21T11:42:01.836Z,11.15
2018-03-21T11:43:05.020Z,11.80
2018-03-21T11:44:08.286Z,13.38
2018-03-21T11:45:11.500Z,11.88
2018-03-21T11:46:15.502Z,11.20
2018-03-21T11:47:19.497Z,10.98
2018-03-21T11:48:22.840Z,10.77
2018-03-21T11:49:26.070Z,9.93
2018-03-21T11:50:30.054Z,10.25
2018-03-21T11:51:34.060Z,10.63
2018-03-21T11:52:37.299Z,10.70
2018-03-21T11:53:40.532Z,11.05
2018-03-21T11:54:46.588Z,10.48
2018-03-21T11:55:49.810Z,10.95
2018-03-21T11:56:53.052Z,11.23
2018-03-21T11:57:57.052Z,10.40
2018-03-21T11:59:01.032Z,10.07
2018-03-21T12:00:04.437Z,11.32
2018-03-21T12:01:07.642Z,10.18
2018-03-21T12:02:11.697Z,11.12
2018-03-21T12:03:14.896Z,10.90
2018-03-21T12:04:18.125Z,10.20
2018-03-21T12:05:22.417Z,9.88
2018-03-21T12:06:26.695Z,11.85
2018-03-21T12:07:30.704Z,12.07
2018-03-21T12:08:34.753Z,11.93
2018-03-21T12:09:37.941Z,10.10
2018-03-21T12:10:41.235Z,11.48
2018-03-21T12:11:44.464Z,10.70
2018-03-21T12:12:48.519Z,11.73
2018-03-21T12:13:51.727Z,10.88
2018-03-21T12:14:55.000Z,9.88
2018-03-21T12:15:58.208Z,12.13
2018-03-21T12:17:02.359Z,11.52
2018-03-21T12:18:05.585Z,11.45
2018-03-21T12:19:09.576Z,12.70
2018-03-21T12:20:12.802Z,12.05
2018-03-21T12:21:16.101Z,11.75
2018-03-21T12:22:19.302Z,13.23
2018-03-21T12:23:22.512Z,11.32
2018-03-21T12:24:26.522Z,11.30
2018-03-21T12:25:30.561Z,11.10
2018-03-21T12:26:33.805Z,11.23
2018-03-21T12:27:37.789Z,11.45
2018-03-21T12:28:41.124Z,10.23
2018-03-21T12:29:44.369Z,11.02
2018-03-21T12:30:47.615Z,10.50
2018-03-21T12:31:50.874Z,10.77
2018-03-21T12:32:54.260Z,9.93
2018-03-21T12:33:57.412Z,8.65
2018-03-21T12:35:01.391Z,10.38
2018-03-21T12:36:04.638Z,10.10
2018-03-21T12:37:07.865Z,8.23
2018-03-21T12:38:11.163Z,7.80
2018-03-21T12:39:17.154Z,8.35
2018-03-21T12:40:20.376Z,8.90
2018-03-21T12:41:24.384Z,9.20
2018-03-21T12:42:27.593Z,8.07
2018-03-21T12:43:30.809Z,8.35
2018-03-21T12:44:34.154Z,8.15
2018-03-21T12:45:37.292Z,6.85
2018-03-21T12:46:40.526Z,7.32
2018-03-21T12:47:44.125Z,6.20
2018-03-21T12:48:47.552Z,5.70
2018-03-21T12:49:50.815Z,5.43
2018-03-21T12:50:54.162Z,7.00
2018-03-21T12:51:57.370Z,6.30
2018-03-21T12:53:00.574Z,7.15
2018-03-21T12:54:04.963Z,7.05
2018-03-21T12:55:08.949Z,6.62
2018-03-21T12:56:12.195Z,7.32
2018-03-21T12:57:15.398Z,6.30
2018-03-21T12:58:19.462Z,7.07
2018-03-21T12:59:22.648Z,6.97
2018-03-21T13:00:26.472Z,7.10
2018-03-21T13:01:29.739Z,8.25
2018-03-21T13:02:32.939Z,8.07
2018-03-21T13:03:36.967Z,8.23
2018-03-21T13:04:40.272Z,7.97
2018-03-21T13:05:43.515Z,8.20
2018-03-21T13:06:47.507Z,9.40
2018-03-21T13:07:50.745Z,7.95
2018-03-21T13:08:53.972Z,8.07
2018-03-21T13:09:57.187Z,8.65
2018-03-21T13:11:00.410Z,7.75
2018-03-21T13:12:03.642Z,8.02
2018-03-21T13:13:06.876Z,7.30
2018-03-21T13:14:10.098Z,8.07
2018-03-21T13:15:14.059Z,7.82
2018-03-21T13:16:17.309Z,8.30
2018-03-21T13:17:20.558Z,8.63
2018-03-21T13:18:23.800Z,8.55
2018-03-21T13:19:27.015Z,10.07
2018-03-21T13:20:30.332Z,9.75
2018-03-21T13:21:33.546Z,9.50
2018-03-21T13:22:36.758Z,9.38
2018-03-21T13:23:39.984Z,8.70
2018-03-21T13:24:43.206Z,10.35
2018-03-21T13:25:46.465Z,9.07
2018-03-21T13:26:49.712Z,8.07
2018-03-21T13:27:53.338Z,9.40
2018-03-21T13:28:56.576Z,10.95
2018-03-21T13:30:00.857Z,10.27
2018-03-21T13:31:04.078Z,9.60
2018-03-21T13:32:08.058Z,9.20
2018-03-21T13:33:12.079Z,9.77
2018-03-21T13:34:16.077Z,8.98
2018-03-21T13:35:20.146Z,9.45
2018-03-21T13:36:24.168Z,11.00
2018-03-21T13:37:28.165Z,10.25
2018-03-21T13:38:32.172Z,9.68
2018-03-21T13:39:35.588Z,9.50
2018-03-21T13:40:38.834Z,9.65
2018-03-21T13:41:42.077Z,9.82
2018-03-21T13:42:45.299Z,9.52
2018-03-21T13:43:48.519Z,10.05
2018-03-21T13:44:51.796Z,10.52
2018-03-21T13:45:55.751Z,9.45